GLO1384 SBGR-SBVT
Flight info
| Callsign | GLO1384 |
|---|---|
| Flight time | N/A |
| Altitude | 35000 |
| Route | UREMI UZ42 IMDAB DCT SEGLI DCT TODET |
| Aircraft | B738/M-SDE2E3FGHIRWXY/LB1 |
Departure
| Time | N/A |
|---|---|
| Airport | São Paulo/Guarulhos–Governor André Franco Montoro International Airport (SBGR) |
Arrival
| Time | 2026-05-06 01:27 |
|---|---|
| Airport | Eurico de Aguiar Salles International Airport (SBVT) |
| Time | Latitude | Longitude | Altitude | Speed | Heading |
|---|---|---|---|---|---|
| 2026-05-06 00:33 | -23.39674 | -45.54373 | 19433 ft | 448 kts | 75° |
| 2026-05-06 00:33 | -23.38848 | -45.51082 | 19714 ft | 452 kts | 73° |
| 2026-05-06 00:33 | -23.37759 | -45.47862 | 20081 ft | 454 kts | 67° |
| 2026-05-06 00:33 | -23.36448 | -45.44735 | 20459 ft | 455 kts | 64° |
| 2026-05-06 00:34 | -23.35043 | -45.41633 | 20779 ft | 458 kts | 63° |
| 2026-05-06 00:34 | -23.33609 | -45.38519 | 21106 ft | 461 kts | 64° |
| 2026-05-06 00:34 | -23.32182 | -45.35388 | 21440 ft | 463 kts | 64° |
| 2026-05-06 00:34 | -23.30768 | -45.32227 | 21760 ft | 465 kts | 64° |
| 2026-05-06 00:35 | -23.29384 | -45.29083 | 22073 ft | 468 kts | 65° |
| 2026-05-06 00:35 | -23.27989 | -45.25876 | 22372 ft | 471 kts | 65° |
| 2026-05-06 00:35 | -23.26593 | -45.22643 | 22668 ft | 473 kts | 65° |
| 2026-05-06 00:35 | -23.25194 | -45.19392 | 22955 ft | 476 kts | 65° |
| 2026-05-06 00:36 | -23.23790 | -45.16129 | 23241 ft | 478 kts | 65° |
| 2026-05-06 00:36 | -23.22375 | -45.12842 | 23510 ft | 481 kts | 65° |
| 2026-05-06 00:36 | -23.20953 | -45.09544 | 23776 ft | 483 kts | 65° |
| 2026-05-06 00:36 | -23.19524 | -45.06232 | 23998 ft | 485 kts | 65° |
| 2026-05-06 00:37 | -23.18088 | -45.02909 | 24217 ft | 487 kts | 65° |
| 2026-05-06 00:37 | -23.16641 | -44.99564 | 24449 ft | 489 kts | 65° |
| 2026-05-06 00:37 | -23.15190 | -44.96213 | 24678 ft | 491 kts | 65° |
| 2026-05-06 00:37 | -23.13730 | -44.92845 | 24862 ft | 494 kts | 65° |
| 2026-05-06 00:38 | -23.12263 | -44.89462 | 25068 ft | 496 kts | 65° |
| 2026-05-06 00:38 | -23.10789 | -44.86063 | 25280 ft | 498 kts | 65° |
| 2026-05-06 00:38 | -23.09310 | -44.82656 | 25496 ft | 500 kts | 65° |
| 2026-05-06 00:38 | -23.07822 | -44.79234 | 25719 ft | 501 kts | 65° |
| 2026-05-06 00:39 | -23.06332 | -44.75805 | 25912 ft | 503 kts | 65° |
| 2026-05-06 00:39 | -23.04834 | -44.72365 | 26147 ft | 504 kts | 65° |
| 2026-05-06 00:39 | -23.03331 | -44.68913 | 26400 ft | 505 kts | 65° |
| 2026-05-06 00:39 | -23.01830 | -44.65469 | 26713 ft | 504 kts | 65° |
| 2026-05-06 00:40 | -23.00351 | -44.62077 | 27034 ft | 503 kts | 65° |
| 2026-05-06 00:40 | -22.98852 | -44.58644 | 27368 ft | 503 kts | 65° |
| 2026-05-06 00:40 | -22.97356 | -44.55218 | 27671 ft | 503 kts | 65° |
| 2026-05-06 00:40 | -22.95857 | -44.51786 | 27999 ft | 503 kts | 65° |
| 2026-05-06 00:41 | -22.94356 | -44.48355 | 28343 ft | 503 kts | 65° |
| 2026-05-06 00:41 | -22.92856 | -44.44927 | 28691 ft | 502 kts | 66° |
| 2026-05-06 00:41 | -22.91359 | -44.41508 | 29057 ft | 502 kts | 66° |
| 2026-05-06 00:41 | -22.89858 | -44.38083 | 29440 ft | 502 kts | 66° |
| 2026-05-06 00:42 | -22.88359 | -44.34667 | 29808 ft | 502 kts | 66° |
| 2026-05-06 00:42 | -22.86859 | -44.31248 | 30205 ft | 502 kts | 66° |
| 2026-05-06 00:42 | -22.85360 | -44.27835 | 30572 ft | 501 kts | 66° |
| 2026-05-06 00:42 | -22.83858 | -44.24418 | 30899 ft | 501 kts | 66° |
| 2026-05-06 00:43 | -22.82356 | -44.21003 | 31221 ft | 502 kts | 66° |
| 2026-05-06 00:43 | -22.80856 | -44.17594 | 31545 ft | 502 kts | 66° |
| 2026-05-06 00:43 | -22.79351 | -44.14178 | 31867 ft | 502 kts | 66° |
| 2026-05-06 00:43 | -22.77847 | -44.10764 | 32175 ft | 502 kts | 66° |
| 2026-05-06 00:44 | -22.76342 | -44.07351 | 32489 ft | 502 kts | 66° |
| 2026-05-06 00:44 | -22.74901 | -44.04086 | 32807 ft | 502 kts | 66° |
| 2026-05-06 00:44 | -22.73389 | -44.00664 | 33125 ft | 502 kts | 66° |
| 2026-05-06 00:44 | -22.71880 | -43.97249 | 33431 ft | 502 kts | 66° |
| 2026-05-06 00:45 | -22.70374 | -43.93845 | 33733 ft | 502 kts | 66° |
| 2026-05-06 00:45 | -22.68858 | -43.90419 | 34011 ft | 502 kts | 66° |
| 2026-05-06 00:45 | -22.67345 | -43.87002 | 34318 ft | 502 kts | 66° |
| 2026-05-06 00:45 | -22.65836 | -43.83598 | 34610 ft | 501 kts | 66° |
| 2026-05-06 00:46 | -22.64331 | -43.80206 | 34907 ft | 500 kts | 66° |
| 2026-05-06 00:46 | -22.62826 | -43.76815 | 35178 ft | 498 kts | 66° |
| 2026-05-06 00:46 | -22.61343 | -43.73478 | 35187 ft | 500 kts | 66° |
| 2026-05-06 00:47 | -22.58329 | -43.66697 | 35221 ft | 500 kts | 66° |
| 2026-05-06 00:47 | -22.55314 | -43.59924 | 35224 ft | 499 kts | 66° |
| 2026-05-06 00:48 | -22.52297 | -43.53156 | 35227 ft | 499 kts | 66° |
| 2026-05-06 00:48 | -22.49283 | -43.46404 | 35225 ft | 498 kts | 66° |
| 2026-05-06 00:49 | -22.46266 | -43.39655 | 35223 ft | 498 kts | 66° |
| 2026-05-06 00:49 | -22.43247 | -43.32912 | 35233 ft | 497 kts | 66° |
| 2026-05-06 00:50 | -22.40229 | -43.26179 | 35233 ft | 497 kts | 66° |
| 2026-05-06 00:50 | -22.37232 | -43.19501 | 35238 ft | 496 kts | 66° |
| 2026-05-06 00:51 | -22.34219 | -43.12800 | 35246 ft | 495 kts | 66° |
| 2026-05-06 00:51 | -22.31206 | -43.06103 | 35221 ft | 495 kts | 66° |
| 2026-05-06 00:52 | -22.28197 | -42.99428 | 35237 ft | 495 kts | 66° |
| 2026-05-06 00:52 | -22.25178 | -42.92737 | 35251 ft | 494 kts | 66° |
| 2026-05-06 00:53 | -22.22147 | -42.86028 | 35259 ft | 500 kts | 66° |
| 2026-05-06 00:53 | -22.19135 | -42.79370 | 35239 ft | 503 kts | 66° |
| 2026-05-06 00:54 | -22.16154 | -42.72793 | 35239 ft | 500 kts | 66° |
| 2026-05-06 00:54 | -22.13097 | -42.66058 | 35242 ft | 499 kts | 66° |
| 2026-05-06 00:55 | -22.10049 | -42.59348 | 35246 ft | 497 kts | 66° |
| 2026-05-06 00:55 | -22.06999 | -42.52642 | 35258 ft | 497 kts | 66° |
| 2026-05-06 00:56 | -22.03949 | -42.45947 | 35263 ft | 497 kts | 66° |
| 2026-05-06 00:56 | -22.00915 | -42.39294 | 35246 ft | 498 kts | 65° |
| 2026-05-06 00:57 | -21.97859 | -42.32602 | 35253 ft | 498 kts | 65° |
| 2026-05-06 00:57 | -21.94800 | -42.25913 | 35235 ft | 498 kts | 65° |
| 2026-05-06 00:58 | -21.91734 | -42.19216 | 35244 ft | 498 kts | 65° |
| 2026-05-06 00:58 | -21.88666 | -42.12525 | 35238 ft | 498 kts | 65° |
| 2026-05-06 00:59 | -21.85591 | -42.05828 | 35238 ft | 498 kts | 65° |
| 2026-05-06 00:59 | -21.82520 | -41.99147 | 35231 ft | 498 kts | 65° |
| 2026-05-06 01:00 | -21.79446 | -41.92469 | 35226 ft | 497 kts | 65° |
| 2026-05-06 01:00 | -21.76376 | -41.85809 | 35241 ft | 497 kts | 65° |
| 2026-05-06 01:01 | -21.73591 | -41.79773 | 35229 ft | 497 kts | 65° |
| 2026-05-06 01:01 | -21.70523 | -41.73132 | 35227 ft | 496 kts | 65° |
| 2026-05-06 01:02 | -21.67505 | -41.66610 | 35221 ft | 496 kts | 65° |
| 2026-05-06 01:02 | -21.64533 | -41.60197 | 35227 ft | 495 kts | 65° |
| 2026-05-06 01:03 | -21.61457 | -41.53560 | 35245 ft | 495 kts | 65° |
| 2026-05-06 01:03 | -21.58382 | -41.46936 | 35220 ft | 495 kts | 65° |
| 2026-05-06 01:04 | -21.55325 | -41.40362 | 35084 ft | 489 kts | 65° |
| 2026-05-06 01:04 | -21.53803 | -41.37091 | 34597 ft | 488 kts | 65° |
| 2026-05-06 01:04 | -21.52290 | -41.33841 | 34168 ft | 485 kts | 65° |
| 2026-05-06 01:04 | -21.50784 | -41.30607 | 33646 ft | 484 kts | 64° |
| 2026-05-06 01:05 | -21.49052 | -41.27505 | 33142 ft | 486 kts | 50° |
| 2026-05-06 01:05 | -21.46608 | -41.25091 | 32746 ft | 484 kts | 37° |
| 2026-05-06 01:05 | -21.43932 | -41.22896 | 32269 ft | 484 kts | 38° |
| 2026-05-06 01:05 | -21.41302 | -41.20639 | 31796 ft | 484 kts | 39° |
| 2026-05-06 01:06 | -21.38702 | -41.18346 | 31336 ft | 484 kts | 39° |
| 2026-05-06 01:06 | -21.36112 | -41.16041 | 30870 ft | 484 kts | 39° |
| 2026-05-06 01:06 | -21.33516 | -41.13737 | 30421 ft | 484 kts | 39° |
| 2026-05-06 01:06 | -21.30913 | -41.11439 | 29910 ft | 485 kts | 39° |
| 2026-05-06 01:07 | -21.28306 | -41.09145 | 29389 ft | 485 kts | 39° |
| 2026-05-06 01:07 | -21.25693 | -41.06849 | 28878 ft | 485 kts | 39° |
| 2026-05-06 01:07 | -21.23082 | -41.04556 | 28384 ft | 485 kts | 39° |
| 2026-05-06 01:07 | -21.20470 | -41.02261 | 27882 ft | 486 kts | 40° |
| 2026-05-06 01:08 | -21.17858 | -40.99967 | 27402 ft | 487 kts | 40° |
| 2026-05-06 01:08 | -21.15234 | -40.97662 | 26899 ft | 488 kts | 40° |
| 2026-05-06 01:08 | -21.12603 | -40.95351 | 26403 ft | 489 kts | 40° |
| 2026-05-06 01:08 | -21.09968 | -40.93039 | 25900 ft | 491 kts | 40° |
| 2026-05-06 01:09 | -21.07324 | -40.90720 | 25406 ft | 491 kts | 40° |
| 2026-05-06 01:09 | -21.04686 | -40.88408 | 24892 ft | 489 kts | 40° |
| 2026-05-06 01:09 | -21.02072 | -40.86120 | 24386 ft | 480 kts | 40° |
| 2026-05-06 01:09 | -20.99506 | -40.83875 | 23885 ft | 474 kts | 40° |
| 2026-05-06 01:10 | -20.97001 | -40.81682 | 23334 ft | 470 kts | 40° |
| 2026-05-06 01:10 | -20.94487 | -40.79481 | 22811 ft | 465 kts | 40° |
| 2026-05-06 01:10 | -20.91991 | -40.77296 | 22308 ft | 460 kts | 40° |
| 2026-05-06 01:10 | -20.89523 | -40.75138 | 21822 ft | 456 kts | 40° |
| 2026-05-06 01:11 | -20.87077 | -40.72998 | 21341 ft | 452 kts | 40° |
| 2026-05-06 01:11 | -20.84651 | -40.70877 | 20868 ft | 449 kts | 40° |
| 2026-05-06 01:11 | -20.82241 | -40.68773 | 20396 ft | 446 kts | 40° |
| 2026-05-06 01:11 | -20.79723 | -40.66852 | 19904 ft | 445 kts | 29° |
| 2026-05-06 01:12 | -20.76882 | -40.65573 | 19487 ft | 442 kts | 22° |
| 2026-05-06 01:12 | -20.74976 | -40.64802 | 19158 ft | 441 kts | 22° |
| 2026-05-06 01:12 | -20.72126 | -40.63621 | 18690 ft | 438 kts | 23° |
| 2026-05-06 01:12 | -20.69312 | -40.62424 | 18157 ft | 431 kts | 23° |
| 2026-05-06 01:13 | -20.66571 | -40.61236 | 17664 ft | 420 kts | 23° |
| 2026-05-06 01:13 | -20.63901 | -40.60066 | 17197 ft | 410 kts | 23° |
| 2026-05-06 01:13 | -20.61292 | -40.58917 | 16753 ft | 401 kts | 23° |
| 2026-05-06 01:13 | -20.58747 | -40.57794 | 16320 ft | 393 kts | 23° |
| 2026-05-06 01:14 | -20.53786 | -40.55609 | 15480 ft | 378 kts | 23° |
| 2026-05-06 01:14 | -20.51371 | -40.54547 | 15073 ft | 372 kts | 22° |
| 2026-05-06 01:14 | -20.48995 | -40.53503 | 14665 ft | 367 kts | 22° |
| 2026-05-06 01:15 | -20.46652 | -40.52474 | 14267 ft | 362 kts | 22° |
| 2026-05-06 01:15 | -20.44342 | -40.51459 | 13841 ft | 357 kts | 22° |
| 2026-05-06 01:15 | -20.42057 | -40.50456 | 13406 ft | 353 kts | 22° |
| 2026-05-06 01:15 | -20.39800 | -40.49466 | 12991 ft | 348 kts | 22° |
| 2026-05-06 01:16 | -20.37577 | -40.48492 | 12591 ft | 344 kts | 22° |
| 2026-05-06 01:16 | -20.35377 | -40.47533 | 12199 ft | 339 kts | 21° |
| 2026-05-06 01:16 | -20.33135 | -40.46799 | 11809 ft | 334 kts | 13° |
| 2026-05-06 01:16 | -20.30901 | -40.46279 | 11406 ft | 323 kts | 12° |
| 2026-05-06 01:17 | -20.28737 | -40.45805 | 11019 ft | 312 kts | 12° |
| 2026-05-06 01:17 | -20.26643 | -40.45323 | 10637 ft | 304 kts | 13° |
| 2026-05-06 01:17 | -20.24581 | -40.44824 | 10276 ft | 304 kts | 13° |
| 2026-05-06 01:17 | -20.22520 | -40.44314 | 9891 ft | 304 kts | 13° |
| 2026-05-06 01:18 | -20.20463 | -40.43801 | 9483 ft | 304 kts | 14° |
| 2026-05-06 01:18 | -20.18405 | -40.43287 | 9089 ft | 304 kts | 14° |
| 2026-05-06 01:18 | -20.16374 | -40.42781 | 8703 ft | 303 kts | 14° |
| 2026-05-06 01:18 | -20.14320 | -40.42268 | 8311 ft | 303 kts | 14° |
| 2026-05-06 01:19 | -20.12271 | -40.41757 | 7928 ft | 303 kts | 15° |
| 2026-05-06 01:19 | -20.10358 | -40.40865 | 7515 ft | 301 kts | 40° |
| 2026-05-06 01:19 | -20.09043 | -40.39183 | 7163 ft | 296 kts | 63° |
| 2026-05-06 01:19 | -20.08319 | -40.37155 | 6798 ft | 293 kts | 75° |
| 2026-05-06 01:20 | -20.07727 | -40.35068 | 6428 ft | 297 kts | 75° |
| 2026-05-06 01:20 | -20.07128 | -40.33017 | 6318 ft | 286 kts | 74° |
| 2026-05-06 01:20 | -20.06533 | -40.31021 | 6110 ft | 280 kts | 74° |
| 2026-05-06 01:20 | -20.05945 | -40.29065 | 5827 ft | 276 kts | 74° |
| 2026-05-06 01:21 | -20.05362 | -40.27132 | 5557 ft | 273 kts | 73° |
| 2026-05-06 01:21 | -20.04786 | -40.25223 | 5316 ft | 269 kts | 73° |
| 2026-05-06 01:21 | -20.04263 | -40.23358 | 5234 ft | 257 kts | 80° |
| 2026-05-06 01:21 | -20.04240 | -40.21519 | 5206 ft | 243 kts | 102° |
| 2026-05-06 01:22 | -20.04807 | -40.19890 | 5199 ft | 230 kts | 121° |
| 2026-05-06 01:22 | -20.05739 | -40.18578 | 5214 ft | 217 kts | 135° |
| 2026-05-06 01:22 | -20.06944 | -40.17663 | 5066 ft | 215 kts | 151° |
| 2026-05-06 01:22 | -20.08405 | -40.17133 | 4596 ft | 228 kts | 168° |
| 2026-05-06 01:23 | -20.09989 | -40.17092 | 4203 ft | 234 kts | 186° |
| 2026-05-06 01:23 | -20.11561 | -40.17568 | 3775 ft | 237 kts | 202° |
| 2026-05-06 01:23 | -20.12948 | -40.18536 | 3332 ft | 241 kts | 221° |
| 2026-05-06 01:23 | -20.13962 | -40.19965 | 2883 ft | 244 kts | 240° |
| 2026-05-06 01:24 | -20.14716 | -40.21583 | 2473 ft | 243 kts | 240° |
| 2026-05-06 01:24 | -20.15508 | -40.23128 | 2327 ft | 230 kts | 239° |
| 2026-05-06 01:24 | -20.16266 | -40.24574 | 2212 ft | 217 kts | 238° |
| 2026-05-06 01:24 | -20.16976 | -40.25925 | 2098 ft | 201 kts | 238° |
| 2026-05-06 01:25 | -20.17684 | -40.27151 | 1758 ft | 194 kts | 231° |
| 2026-05-06 01:25 | -20.18616 | -40.28115 | 1569 ft | 177 kts | 212° |
| 2026-05-06 01:25 | -20.19670 | -40.28631 | 1497 ft | 156 kts | 192° |
| 2026-05-06 01:25 | -20.20698 | -40.28694 | 1267 ft | 146 kts | 173° |
| 2026-05-06 01:26 | -20.21655 | -40.28574 | 980 ft | 138 kts | 173° |
| 2026-05-06 01:26 | -20.22580 | -40.28431 | 657 ft | 132 kts | 167° |
| 2026-05-06 01:26 | -20.23526 | -40.28294 | 354 ft | 144 kts | 173° |
| 2026-05-06 01:26 | -20.24536 | -40.28139 | 145 ft | 148 kts | 172° |
| 2026-05-06 01:27 | -20.25513 | -40.28008 | 39 ft | 127 kts | 167° |
| 2026-05-06 01:27 | -20.26270 | -40.27896 | 38 ft | 71 kts | 172° |
| 2026-05-06 01:27 | -20.26497 | -40.27877 | 38 ft | 26 kts | 186° |
| 2026-05-06 01:27 | -20.26588 | -40.27897 | 40 ft | 0 kts | 193° |
| 2026-05-06 01:29 | -20.26597 | -40.27903 | 37 ft | 3 kts | 223° |
| 2026-05-06 01:29 | -20.26614 | -40.27945 | 41 ft | 9 kts | 255° |
| 2026-05-06 01:29 | -20.26628 | -40.28008 | 39 ft | 9 kts | 242° |
| 2026-05-06 01:29 | -20.26621 | -40.28067 | 39 ft | 9 kts | 300° |
| 2026-05-06 01:30 | -20.26610 | -40.28109 | 38 ft | 0 kts | 274° |
| 2026-05-06 01:30 | -20.26610 | -40.28121 | 40 ft | 3 kts | 269° |
| 2026-05-06 01:30 | -20.26612 | -40.28142 | 40 ft | 0 kts | 266° |